| time (UTC) | temp F | wind direction | speed knots | gust knots | rain 1hr in | rain 24hr in | rain mn in | humidity % | barometer mb |
| 20260906063100 | 51 | 311 | 0.9 | 5.2 | 0.00 | 0.00 | 0.00 | 88 | 1005.0 |
| 20260906061600 | 50 | 312 | 2.6 | 6.1 | 0.00 | 0.00 | 0.00 | 90 | 1004.8 |
| 20260906060058 | 49 | 315 | 0.9 | 4.3 | 0.00 | 0.00 | 0.00 | 92 | 1004.7 |
| 20260906060001 | 49 | 315 | 0.9 | 4.3 | 0.00 | 0.00 | 0.00 | 92 | 1004.7 |
| 20260906054609 | 48 | 323 | 0.9 | 3.5 | 0.00 | 0.00 | 0.00 | 93 | 1004.7 |
| 20260906053100 | 47 | 336 | 0.9 | 2.6 | 0.00 | 0.00 | 0.00 | 94 | 1004.6 |
| 20260906051600 | 46 | 311 | 0.9 | 2.6 | 0.00 | 0.00 | 0.00 | 94 | 1004.4 |
| 20260906050122 | 45 | 331 | 1.7 | 2.6 | 0.00 | 0.00 | 0.00 | 94 | 1004.2 |
| 20260906044559 | 45 | 321 | 0.9 | 2.6 | 0.00 | 0.00 | 0.00 | 94 | 1004.2 |
| 20260906043059 | 44 | 321 | 0.9 | 4.3 | 0.00 | 0.00 | 0.00 | 94 | 1004.0 |
| 20260906041559 | 44 | 322 | 1.7 | 4.3 | 0.00 | 0.00 | 0.00 | 94 | 1003.8 |
| 20260906040120 | 43 | 313 | 0.9 | 2.6 | 0.00 | 0.00 | 0.00 | 94 | 1003.7 |
| 20260906034559 | 43 | 313 | 0.0 | 2.6 | 0.00 | 0.00 | 0.00 | 94 | 1003.5 |
| 20260906033108 | 44 | 313 | 0.0 | 2.6 | 0.00 | 0.00 | 0.00 | 93 | 1003.4 |
| 20260906031601 | 44 | 321 | 0.9 | 2.6 | 0.00 | 0.00 | 0.00 | 93 | 1003.4 |
| 20260906030059 | 44 | 318 | 0.9 | 3.5 | 0.00 | 0.00 | 0.00 | 94 | 1003.2 |
| 20260906030001 | 44 | 318 | 0.9 | 3.5 | 0.00 | 0.00 | 0.00 | 94 | 1003.2 |
| 20260906024615 | 44 | 317 | 0.9 | 2.6 | 0.00 | 0.00 | 0.00 | 93 | 1003.0 |
| 20260906023100 | 45 | 317 | 0.9 | 2.6 | 0.00 | 0.00 | 0.00 | 93 | 1002.9 |
| 20260906021600 | 45 | 329 | 1.7 | 3.5 | 0.00 | 0.00 | 0.00 | 94 | 1002.7 |
| 20260906020101 | 45 | 329 | 1.7 | 3.5 | 0.00 | 0.00 | 0.00 | 94 | 1002.6 |
| 20260906014608 | 44 | 344 | 0.0 | 3.5 | 0.00 | 0.00 | 0.00 | 93 | 1002.3 |
| 20260906013059 | 45 | 344 | 0.9 | 3.5 | 0.00 | 0.00 | 0.00 | 94 | 1002.2 |
| 20260906011559 | 45 | 324 | 0.9 | 2.6 | 0.00 | 0.00 | 0.00 | 93 | 1002.0 |
| 20260906010059 | 45 | 324 | 0.9 | 2.6 | 0.00 | 0.00 | 0.00 | 93 | 1001.8 |
| 20260906010001 | 45 | 324 | 0.9 | 2.6 | 0.00 | 0.00 | 0.00 | 93 | 1001.8 |
| 20260906004600 | 45 | 324 | 0.0 | 2.6 | 0.00 | 0.00 | 0.00 | 93 | 1001.8 |
| 20260906003100 | 46 | 324 | 0.9 | 3.5 | 0.00 | 0.00 | 0.00 | 93 | 1001.6 |
| 20260906001600 | 46 | 340 | 1.7 | 4.3 | 0.00 | 0.00 | 0.00 | 93 | 1001.4 |
| 20260906000101 | 46 | 342 | 1.7 | 4.3 | 0.00 | 0.00 | 0.00 | 92 | 1001.2 |
| 20260905234612 | 47 | 333 | 1.7 | 7.0 | 0.00 | 0.00 | 0.00 | 92 | 1001.0 |
| 20260905233059 | 47 | 336 | 1.7 | 4.3 | 0.00 | 0.00 | 0.00 | 91 | 1000.8 |
| 20260905231559 | 48 | 317 | 1.7 | 7.0 | 0.00 | 0.00 | 0.00 | 89 | 1000.6 |
| 20260905230128 | 48 | 342 | 2.6 | 7.8 | 0.00 | 0.00 | 0.00 | 89 | 1000.5 |
| 20260905224558 | 49 | 324 | 2.6 | 5.2 | 0.00 | 0.00 | 0.00 | 89 | 1000.3 |
| 20260905223059 | 49 | 329 | 2.6 | 5.2 | 0.00 | 0.00 | 0.00 | 89 | 1000.2 |
| 20260905221603 | 49 | 339 | 1.7 | 4.3 | 0.00 | 0.00 | 0.00 | 89 | 1000.0 |
| 20260905220059 | 50 | 323 | 1.7 | 3.5 | 0.00 | 0.00 | 0.00 | 88 | 999.9 |
| 20260905220002 | 50 | 322 | 1.7 | 3.5 | 0.00 | 0.00 | 0.00 | 88 | 999.8 |
| 20260905214601 | 51 | 339 | 1.7 | 4.3 | 0.00 | 0.00 | 0.00 | 87 | 999.6 |
| 20260905213100 | 51 | 327 | 2.6 | 5.2 | 0.00 | 0.00 | 0.00 | 87 | 999.5 |
| 20260905211604 | 52 | 344 | 1.7 | 3.5 | 0.00 | 0.00 | 0.00 | 86 | 999.3 |
| 20260905210005 | 52 | 329 | 2.6 | 5.2 | 0.00 | 0.00 | 0.00 | 87 | 999.1 |
| 20260905204559 | 53 | 332 | 1.7 | 4.3 | 0.00 | 0.00 | 0.00 | 87 | 998.7 |
| 20260905203103 | 53 | 322 | 2.6 | 5.2 | 0.00 | 0.00 | 0.00 | 88 | 998.5 |
| 20260905201600 | 53 | 324 | 2.6 | 5.2 | 0.00 | 0.00 | 0.00 | 89 | 998.3 |
| 20260905200107 | 53 | 346 | 1.7 | 5.2 | 0.00 | 0.00 | 0.00 | 90 | 998.0 |
| 20260905194600 | 53 | 333 | 1.7 | 5.2 | 0.00 | 0.00 | 0.00 | 91 | 997.8 |
| 20260905193112 | 53 | 343 | 0.0 | 0.9 | 0.00 | 0.00 | 0.00 | 93 | 997.6 |
| 20260905191601 | 52 | 346 | 0.0 | 0.9 | 0.00 | 0.00 | 0.00 | 93 | 997.7 |
| 20260905190100 | 51 | 348 | 0.0 | 0.9 | 0.00 | 0.00 | 0.00 | 94 | 997.6 |
| 20260905190001 | 51 | 348 | 0.0 | 0.9 | 0.00 | 0.00 | 0.00 | 94 | 997.5 |
| 20260905184604 | 50 | 348 | 0.0 | 0.0 | 0.00 | 0.00 | 0.00 | 93 | 997.4 |
| 20260905183101 | 50 | 348 | 0.0 | 0.0 | 0.00 | 0.00 | 0.00 | 91 | 997.3 |
| 20260905181600 | 52 | 348 | 0.0 | 0.0 | 0.00 | 0.00 | 0.00 | 90 | 997.2 |
| 20260905180100 | 53 | 348 | 0.0 | 0.0 | 0.00 | 0.00 | 0.00 | 88 | 997.1 |
| 20260905180001 | 54 | 348 | 0.0 | 0.0 | 0.00 | 0.00 | 0.00 | 88 | 997.1 |
| 20260905174611 | 55 | 348 | 0.0 | 0.0 | 0.00 | 0.00 | 0.00 | 87 | 996.9 |
| 20260905173100 | 55 | 348 | 0.0 | 0.0 | 0.00 | 0.00 | 0.00 | 86 | 996.8 |
| 20260905171605 | 57 | 348 | 0.0 | 0.0 | 0.00 | 0.00 | 0.00 | 84 | 996.5 |
| 20260905170100 | 58 | 348 | 0.0 | 0.0 | 0.00 | 0.00 | 0.00 | 81 | 996.4 |
| 20260905170001 | 58 | 348 | 0.0 | 0.0 | 0.00 | 0.00 | 0.00 | 81 | 996.4 |
| 20260905164600 | 59 | 348 | 0.9 | 2.6 | 0.00 | 0.00 | 0.00 | 79 | 996.2 |
| 20260905163102 | 59 | 333 | 1.7 | 4.3 | 0.00 | 0.00 | 0.00 | 76 | 996.1 |
| 20260905161559 | 60 | 330 | 0.9 | 4.3 | 0.00 | 0.00 | 0.00 | 74 | 995.9 |
| 20260905160004 | 61 | 325 | 2.6 | 7.0 | 0.00 | 0.00 | 0.00 | 72 | 995.6 |
| 20260905154608 | 61 | 324 | 1.7 | 5.2 | 0.00 | 0.00 | 0.00 | 72 | 995.5 |
| 20260905153100 | 61 | 302 | 0.0 | 0.9 | 0.00 | 0.00 | 0.00 | 73 | 995.4 |
| 20260905151600 | 61 | 342 | 0.0 | 5.2 | 0.00 | 0.00 | 0.00 | 73 | 995.3 |
| 20260905150113 | 61 | 355 | 2.6 | 6.1 | 0.00 | 0.00 | 0.00 | 72 | 995.2 |
| 20260905150002 | 61 | 324 | 0.9 | 5.2 | 0.00 | 0.00 | 0.00 | 73 | 995.2 |
| 20260905144559 | 61 | 339 | 1.7 | 7.0 | 0.00 | 0.00 | 0.00 | 72 | 995.1 |
| 20260905143059 | 61 | 329 | 3.5 | 7.8 | 0.00 | 0.00 | 0.00 | 70 | 995.0 |
| 20260905141600 | 61 | 333 | 3.5 | 8.7 | 0.00 | 0.00 | 0.00 | 70 | 994.9 |
| 20260905140001 | 61 | 310 | 3.5 | 9.6 | 0.00 | 0.00 | 0.00 | 68 | 994.7 |
| 20260905134602 | 63 | 333 | 3.5 | 11.3 | 0.00 | 0.00 | 0.00 | 64 | 994.5 |
| 20260905133100 | 65 | 280 | 3.5 | 8.7 | 0.00 | 0.00 | 0.00 | 53 | 994.2 |
| 20260905131600 | 65 | 329 | 2.6 | 7.0 | 0.00 | 0.00 | 0.00 | 53 | 994.2 |
| 20260905130100 | 65 | 295 | 1.7 | 5.2 | 0.00 | 0.00 | 0.00 | 55 | 994.0 |
| 20260905130002 | 65 | 13 | 1.7 | 5.2 | 0.00 | 0.00 | 0.00 | 56 | 994.1 |
| 20260905124602 | 63 | 28 | 0.0 | 3.5 | 0.00 | 0.00 | 0.00 | 60 | 994.0 |
| 20260905123101 | 64 | 360 | 0.0 | 2.6 | 0.00 | 0.00 | 0.00 | 59 | 994.0 |
| 20260905121603 | 63 | 322 | 1.7 | 8.7 | 0.00 | 0.00 | 0.00 | 60 | 994.0 |
| 20260905120001 | 63 | 324 | 1.7 | 4.3 | 0.00 | 0.00 | 0.00 | 63 | 993.9 |
| 20260905114600 | 62 | 317 | 0.9 | 5.2 | 0.00 | 0.00 | 0.00 | 63 | 993.8 |
| 20260905113111 | 63 | 323 | 3.5 | 10.4 | 0.00 | 0.00 | 0.00 | 61 | 993.8 |
| 20260905111600 | 64 | 317 | 1.7 | 7.8 | 0.00 | 0.00 | 0.00 | 58 | 993.6 |
| 20260905110059 | 64 | 302 | 2.6 | 7.0 | 0.00 | 0.00 | 0.00 | 59 | 993.5 |
| 20260905110001 | 64 | 304 | 1.7 | 7.0 | 0.00 | 0.00 | 0.00 | 61 | 993.5 |
| 20260905104559 | 62 | 18 | 0.0 | 2.6 | 0.00 | 0.05 | 0.00 | 65 | 993.4 |
| 20260905103103 | 61 | 18 | 0.0 | 3.5 | 0.00 | 0.05 | 0.00 | 67 | 993.4 |
| 20260905101600 | 61 | 342 | 0.9 | 3.5 | 0.00 | 0.05 | 0.00 | 66 | 993.2 |
| 20260905100105 | 63 | 335 | 0.0 | 5.2 | 0.00 | 0.05 | 0.00 | 65 | 993.1 |
| 20260905100002 | 63 | 360 | 0.0 | 1.7 | 0.00 | 0.05 | 0.00 | 64 | 993.1 |
| 20260905094600 | 61 | 22 | 0.0 | 0.9 | 0.00 | 0.09 | 0.00 | 69 | 993.0 |
| 20260905093100 | 61 | 323 | 0.0 | 1.7 | 0.00 | 0.09 | 0.00 | 68 | 992.9 |
| 20260905091604 | 62 | 330 | 0.0 | 1.7 | 0.00 | 0.09 | 0.00 | 69 | 992.9 |
| 20260905084600 | 59 | 313 | 0.0 | 0.9 | 0.00 | 0.09 | 0.00 | 84 | 992.8 |
| 20260905083100 | 57 | 313 | 0.0 | 0.0 | 0.00 | 0.09 | 0.00 | 91 | 992.7 |
| 20260905081600 | 56 | 298 | 0.0 | 0.0 | 0.00 | 0.09 | 0.00 | 95 | 992.8 |
| 20260905080100 | 54 | 289 | 0.0 | 0.0 | 0.00 | 0.09 | 0.00 | 97 | 992.7 |
| 20260905080002 | 54 | 289 | 0.0 | 0.0 | 0.00 | 0.09 | 0.00 | 97 | 992.7 |
| 20260905074600 | 51 | 289 | 0.0 | 0.0 | 0.00 | 0.09 | 0.00 | 97 | 992.7 |
| 20260905073103 | 49 | 289 | 0.0 | 0.0 | 0.00 | 0.09 | 0.00 | 96 | 992.6 |
| 20260905071606 | 48 | 289 | 0.0 | 0.0 | 0.00 | 0.09 | 0.00 | 96 | 992.5 |
| 20260905070100 | 47 | 289 | 0.0 | 0.0 | 0.00 | 0.09 | 0.00 | 97 | 992.4 |
| 20260905070002 | 47 | 289 | 0.0 | 0.0 | 0.00 | 0.09 | 0.00 | 97 | 992.4 |
| 20260905064600 | 46 | 289 | 0.0 | 0.0 | 0.00 | 0.09 | 0.00 | 96 | 992.4 |